Menia Maria III — SY4965 — position and weather

sailwx.info

Track history (hours):
 
Tides and Currents Weather Stations Pressure Air Temp Water Temp Dewpoint Dewpoint Depression Visibility Wind Speed Wind Dir Waves Ship Positions

Menia Maria III

Last reported at 2017-Oct-20 02:16 UTC. Time now 2017-Oct-22 18:59 UTC.
Position N 40°14' E 023°44'.

Length 50 m; draft 2.5 m.

Type: Passenger vessel. MMSI: 237784100.

Date/timePositionNaut miles runAvg speedWind from/ knotsBaromVisibWave heightAir tempDewpointWater temp
2017-Oct-20 02:16N 40°14' E 023°44'0 0.0
2017-Oct-20 01:55N 40°14' E 023°44'0 0.0
2017-Oct-20 01:01N 40°14' E 023°44'0 0.0
2017-Oct-20 01:00N 40°14' E 023°44'0 0.0
2017-Oct-20 00:30N 40°14' E 023°44'0 0.0
2017-Oct-20 00:00N 40°14' E 023°44'0 0.0
2017-Oct-19 23:26N 40°14' E 023°44'0 0.0
2017-Oct-19 23:01N 40°14' E 023°44'0 0.0
2017-Oct-19 22:31N 40°14' E 023°44'0 0.0
2017-Oct-19 21:51N 40°14' E 023°44'0 0.0
2017-Oct-19 21:30N 40°14' E 023°44'0 0.0
2017-Oct-19 20:43N 40°14' E 023°44'0 0.0
2017-Oct-19 20:30N 40°14' E 023°44'0 0.0
2017-Oct-19 19:56N 40°14' E 023°44'0 0.0
2017-Oct-19 19:30N 40°14' E 023°44'0 0.0
2017-Oct-19 18:49N 40°14' E 023°44'0 0.0
2017-Oct-19 18:23N 40°14' E 023°44'0 0.0
2017-Oct-19 18:00N 40°14' E 023°44'0 0.0
2017-Oct-19 17:05N 40°14' E 023°44'0 0.0
2017-Oct-19 16:24N 40°14' E 023°44'0 0.0
2017-Oct-19 15:55N 40°14' E 023°44'0 0.0
2017-Oct-19 15:30N 40°14' E 023°44'0 0.0
2017-Oct-19 14:54N 40°14' E 023°44'0 0.0
2017-Oct-19 14:15N 40°14' E 023°44'0 0.0
2017-Oct-19 14:00N 40°14' E 023°44'0 0.0
2017-Oct-19 13:26N 40°14' E 023°44'0 0.0
2017-Oct-19 13:01N 40°14' E 023°44'0 0.0
2017-Oct-19 12:30N 40°14' E 023°44'0 0.0
2017-Oct-19 12:00N 40°14' E 023°44'0 0.0
2017-Oct-19 11:30N 40°14' E 023°44'0 0.0
2017-Oct-19 11:00N 40°14' E 023°44'0 0.0
2017-Oct-19 10:30N 40°14' E 023°44'0 0.0
2017-Oct-19 10:00N 40°14' E 023°44'0 0.0
2017-Oct-19 09:31N 40°14' E 023°44'0 0.0
2017-Oct-19 09:01N 40°14' E 023°44'0 0.0
2017-Oct-19 07:55N 40°14' E 023°44'0 0.0
2017-Oct-19 07:30N 40°14' E 023°44'0 0.0
2017-Oct-19 06:59N 40°14' E 023°44'0 0.0
2017-Oct-19 04:13N 40°14' E 023°44'0 0.0
2017-Oct-19 03:34N 40°14' E 023°44'0 0.0
2017-Oct-19 03:30N 40°14' E 023°44'0 0.0
2017-Oct-19 03:00N 40°14' E 023°44'0 0.0
2017-Oct-19 02:26N 40°14' E 023°44'22 1.2
2017-Oct-18 08:38N 40°10' E 024°13'110.0
2017-Oct-18 08:30N 40°10' E 024°11'5 9.9
2017-Oct-18 08:01N 40°11' E 024°05'510.0
2017-Oct-18 07:29N 40°13' E 023°58'510.0
2017-Oct-18 06:59N 40°14' E 023°51'6 1.0
2017-Oct-18 01:23N 40°14' E 023°44'0 0.0
2017-Oct-18 00:56N 40°14' E 023°44'0 0.0
2017-Oct-17 23:58N 40°14' E 023°44'0 0.0
2017-Oct-17 23:30N 40°14' E 023°44'0 0.0
2017-Oct-17 22:49N 40°14' E 023°44'0 0.0
2017-Oct-17 21:52N 40°14' E 023°44'0 0.0
2017-Oct-17 21:29N 40°14' E 023°44'0 0.0
2017-Oct-17 21:00N 40°14' E 023°44'0 0.0
2017-Oct-17 20:30N 40°14' E 023°44'0 0.0
2017-Oct-17 19:57N 40°14' E 023°44'0 0.0
2017-Oct-17 19:29N 40°14' E 023°44'0 0.0
2017-Oct-17 16:15N 40°14' E 023°44'0 0.0
2017-Oct-17 15:28N 40°14' E 023°44'0 0.0
2017-Oct-17 15:01N 40°14' E 023°44'0 0.0
2017-Oct-17 14:30N 40°14' E 023°44'0 0.0
2017-Oct-17 14:00N 40°14' E 023°44'0 0.0
2017-Oct-17 11:11N 40°14' E 023°44'0 0.0
2017-Oct-16 01:45N 40°14' E 023°44'0 0.0
2017-Oct-16 01:31N 40°14' E 023°44'0 0.0
2017-Oct-16 00:59N 40°14' E 023°44'0 0.0
2017-Oct-15 22:27N 40°14' E 023°44'1 0.1
2017-Oct-15 13:46N 40°15' E 023°45'310.3
2017-Oct-15 13:27N 40°16' E 023°49'13 3.6
2017-Oct-15 09:57N 40°17' E 024°06'5 9.2
2017-Oct-15 09:23N 40°14' E 024°12'5 9.2
2017-Oct-15 08:50N 40°10' E 024°16'410.0
2017-Oct-15 08:27N 40°11' E 024°11'410.0
2017-Oct-15 08:00N 40°11' E 024°05'6 9.8
2017-Oct-15 07:25N 40°13' E 023°58'9 0.4
2017-Oct-14 09:54N 40°16' E 024°08'4 9.6
2017-Oct-14 09:30N 40°14' E 024°12'5 8.4
2017-Oct-14 08:56N 40°10' E 024°15'5 9.8
2017-Oct-14 08:28N 40°11' E 024°09'610.2
2017-Oct-14 07:50N 40°12' E 024°01'410.0
2017-Oct-14 07:28N 40°13' E 023°56'9 0.6
2017-Oct-13 15:33N 40°14' E 023°44'0 0.0
2017-Oct-13 15:24N 40°14' E 023°44'0 0.0
2017-Oct-13 14:42N 40°14' E 023°44'0 0.0
2017-Oct-13 14:30N 40°14' E 023°44'0 0.0
2017-Oct-13 13:28N 40°14' E 023°44'  
Track history (hours):
 
Tides and Currents Weather Stations Pressure Air Temp Water Temp Dewpoint Dewpoint Depression Visibility Wind Speed Wind Dir Waves Ship Positions

Menia Maria III

Last reported at 2017-Oct-20 02:16 UTC. Time now 2017-Oct-22 18:59 UTC.
Position N 40°14' E 023°44'.

Length 50 m; draft 2.5 m.

Type: Passenger vessel. MMSI: 237784100.

Date/timePositionNaut miles runAvg speedWind from/ knotsBaromVisibWave heightAir tempDewpointWater temp
2017-Oct-20 02:16N 40°14' E 023°44'0 0.0
2017-Oct-20 01:55N 40°14' E 023°44'0 0.0
2017-Oct-20 01:01N 40°14' E 023°44'0 0.0
2017-Oct-20 01:00N 40°14' E 023°44'0 0.0
2017-Oct-20 00:30N 40°14' E 023°44'0 0.0
2017-Oct-20 00:00N 40°14' E 023°44'0 0.0
2017-Oct-19 23:26N 40°14' E 023°44'0 0.0
2017-Oct-19 23:01N 40°14' E 023°44'0 0.0
2017-Oct-19 22:31N 40°14' E 023°44'0 0.0
2017-Oct-19 21:51N 40°14' E 023°44'0 0.0
2017-Oct-19 21:30N 40°14' E 023°44'0 0.0
2017-Oct-19 20:43N 40°14' E 023°44'0 0.0
2017-Oct-19 20:30N 40°14' E 023°44'0 0.0
2017-Oct-19 19:56N 40°14' E 023°44'0 0.0
2017-Oct-19 19:30N 40°14' E 023°44'0 0.0
2017-Oct-19 18:49N 40°14' E 023°44'0 0.0
2017-Oct-19 18:23N 40°14' E 023°44'0 0.0
2017-Oct-19 18:00N 40°14' E 023°44'0 0.0
2017-Oct-19 17:05N 40°14' E 023°44'0 0.0
2017-Oct-19 16:24N 40°14' E 023°44'0 0.0
2017-Oct-19 15:55N 40°14' E 023°44'0 0.0
2017-Oct-19 15:30N 40°14' E 023°44'0 0.0
2017-Oct-19 14:54N 40°14' E 023°44'0 0.0
2017-Oct-19 14:15N 40°14' E 023°44'0 0.0
2017-Oct-19 14:00N 40°14' E 023°44'0 0.0
2017-Oct-19 13:26N 40°14' E 023°44'0 0.0
2017-Oct-19 13:01N 40°14' E 023°44'0 0.0
2017-Oct-19 12:30N 40°14' E 023°44'0 0.0
2017-Oct-19 12:00N 40°14' E 023°44'0 0.0
2017-Oct-19 11:30N 40°14' E 023°44'0 0.0
2017-Oct-19 11:00N 40°14' E 023°44'0 0.0
2017-Oct-19 10:30N 40°14' E 023°44'0 0.0
2017-Oct-19 10:00N 40°14' E 023°44'0 0.0
2017-Oct-19 09:31N 40°14' E 023°44'0 0.0
2017-Oct-19 09:01N 40°14' E 023°44'0 0.0
2017-Oct-19 07:55N 40°14' E 023°44'0 0.0
2017-Oct-19 07:30N 40°14' E 023°44'0 0.0
2017-Oct-19 06:59N 40°14' E 023°44'0 0.0
2017-Oct-19 04:13N 40°14' E 023°44'0 0.0
2017-Oct-19 03:34N 40°14' E 023°44'0 0.0
2017-Oct-19 03:30N 40°14' E 023°44'0 0.0
2017-Oct-19 03:00N 40°14' E 023°44'0 0.0
2017-Oct-19 02:26N 40°14' E 023°44'22 1.2
2017-Oct-18 08:38N 40°10' E 024°13'110.0
2017-Oct-18 08:30N 40°10' E 024°11'5 9.9
2017-Oct-18 08:01N 40°11' E 024°05'510.0
2017-Oct-18 07:29N 40°13' E 023°58'510.0
2017-Oct-18 06:59N 40°14' E 023°51'6 1.0
2017-Oct-18 01:23N 40°14' E 023°44'0 0.0
2017-Oct-18 00:56N 40°14' E 023°44'0 0.0
2017-Oct-17 23:58N 40°14' E 023°44'0 0.0
2017-Oct-17 23:30N 40°14' E 023°44'0 0.0
2017-Oct-17 22:49N 40°14' E 023°44'0 0.0
2017-Oct-17 21:52N 40°14' E 023°44'0 0.0
2017-Oct-17 21:29N 40°14' E 023°44'0 0.0
2017-Oct-17 21:00N 40°14' E 023°44'0 0.0
2017-Oct-17 20:30N 40°14' E 023°44'0 0.0
2017-Oct-17 19:57N 40°14' E 023°44'0 0.0
2017-Oct-17 19:29N 40°14' E 023°44'0 0.0
2017-Oct-17 16:15N 40°14' E 023°44'0 0.0
2017-Oct-17 15:28N 40°14' E 023°44'0 0.0
2017-Oct-17 15:01N 40°14' E 023°44'0 0.0
2017-Oct-17 14:30N 40°14' E 023°44'0 0.0
2017-Oct-17 14:00N 40°14' E 023°44'0 0.0
2017-Oct-17 11:11N 40°14' E 023°44'0 0.0
2017-Oct-16 01:45N 40°14' E 023°44'0 0.0
2017-Oct-16 01:31N 40°14' E 023°44'0 0.0
2017-Oct-16 00:59N 40°14' E 023°44'0 0.0
2017-Oct-15 22:27N 40°14' E 023°44'1 0.1
2017-Oct-15 13:46N 40°15' E 023°45'310.3
2017-Oct-15 13:27N 40°16' E 023°49'13 3.6
2017-Oct-15 09:57N 40°17' E 024°06'5 9.2
2017-Oct-15 09:23N 40°14' E 024°12'5 9.2
2017-Oct-15 08:50N 40°10' E 024°16'410.0
2017-Oct-15 08:27N 40°11' E 024°11'410.0
2017-Oct-15 08:00N 40°11' E 024°05'6 9.8
2017-Oct-15 07:25N 40°13' E 023°58'9 0.4
2017-Oct-14 09:54N 40°16' E 024°08'4 9.6
2017-Oct-14 09:30N 40°14' E 024°12'5 8.4
2017-Oct-14 08:56N 40°10' E 024°15'5 9.8
2017-Oct-14 08:28N 40°11' E 024°09'610.2
2017-Oct-14 07:50N 40°12' E 024°01'410.0
2017-Oct-14 07:28N 40°13' E 023°56'9 0.6
2017-Oct-13 15:33N 40°14' E 023°44'0 0.0
2017-Oct-13 15:24N 40°14' E 023°44'0 0.0
2017-Oct-13 14:42N 40°14' E 023°44'0 0.0
2017-Oct-13 14:30N 40°14' E 023°44'0 0.0
2017-Oct-13 13:28N 40°14' E 023°44'  

Dump ship's entire track history